Terminal Aerodrome Forecast
Issued by NWS

Home | Current Version | Previous Version | Text Only | Print | Product List | Glossary On
Versions: 1 2 3 4 5 6 7 8 9 10 11 12 13 14 15 16 17 18 19 20 21
000
FTAK31 PANC 271129
TAFADL
TAF
PADL 271129Z 2712/2812 14011KT 6SM -RA BR OVC020
     FM271600 11008KT 6SM -RA SCT007 BKN010
     FM280400 12005KT P6SM OVC015
      AMD NOT SKED=

USA.gov is the U.S. government's official web portal to all federal, state and local government web resources and services.